createdAt,value
2018-02-05T06:36:41.004Z,51.30
2018-02-05T06:39:09.386Z,51.20
2018-02-05T06:41:54.897Z,51.00
2018-02-05T06:44:22.804Z,51.00
2018-02-05T06:46:50.460Z,50.80
2018-02-05T06:49:18.039Z,50.60
2018-02-05T06:51:57.453Z,49.70
2018-02-05T06:54:48.158Z,49.70
2018-02-05T06:57:15.813Z,49.80
2018-02-05T06:59:43.388Z,49.60
2018-02-05T07:02:10.975Z,49.40
2018-02-05T07:05:01.834Z,50.00
2018-02-05T07:07:29.419Z,49.50
2018-02-05T07:09:57.000Z,49.70
2018-02-05T07:12:24.549Z,49.80
2018-02-05T07:14:52.185Z,50.00
2018-02-05T07:17:19.846Z,50.20
2018-02-05T07:19:47.405Z,50.20
2018-02-05T07:22:14.969Z,50.10
2018-02-05T07:24:42.716Z,49.90
2018-02-05T07:27:10.402Z,50.00
2018-02-05T07:29:46.505Z,50.00
2018-02-05T07:32:14.928Z,50.10
2018-02-05T07:34:42.609Z,50.10
2018-02-05T07:37:10.256Z,50.20
2018-02-05T07:39:37.916Z,50.20
2018-02-05T07:42:22.751Z,50.10
2018-02-05T07:44:51.429Z,50.10
2018-02-05T07:47:19.785Z,50.00
2018-02-05T07:49:47.373Z,50.00
2018-02-05T07:52:15.702Z,50.00
2018-02-05T07:55:05.474Z,49.80
2018-02-05T07:57:33.033Z,50.00
2018-02-05T08:00:00.633Z,50.20
2018-02-05T08:02:28.195Z,50.30
2018-02-05T08:07:47.319Z,51.10
2018-02-05T08:13:35.996Z,50.40
2018-02-05T08:16:03.579Z,50.30
2018-02-05T08:18:31.146Z,50.40
2018-02-05T08:24:26.745Z,50.30
2018-02-05T08:26:54.310Z,50.10
2018-02-05T08:32:43.758Z,49.80
2018-02-05T08:38:59.693Z,49.90
2018-02-05T08:45:16.830Z,50.10
2018-02-05T08:51:05.385Z,50.40
2018-02-05T08:53:34.795Z,50.50
2018-02-05T08:59:23.931Z,50.10
2018-02-05T09:01:54.652Z,49.90
2018-02-05T09:11:19.825Z,50.10
2018-02-05T09:13:47.383Z,49.90
2018-02-05T09:16:14.950Z,49.90
2018-02-05T09:18:42.545Z,49.80
2018-02-05T09:21:10.121Z,49.80
2018-02-05T09:23:37.717Z,49.70
2018-02-05T09:26:06.068Z,49.50
2018-02-05T09:28:35.063Z,49.40
2018-02-05T09:31:02.645Z,49.30
2018-02-05T09:33:31.006Z,49.30
2018-02-05T09:35:58.569Z,49.30
2018-02-05T09:38:28.222Z,49.30
2018-02-05T09:40:55.795Z,49.20
2018-02-05T09:43:23.358Z,49.10
2018-02-05T09:45:50.935Z,49.10
2018-02-05T09:48:18.513Z,49.20
2018-02-05T09:50:46.072Z,49.10
2018-02-05T09:53:13.642Z,49.00
2018-02-05T09:55:41.244Z,49.00
2018-02-05T09:58:08.833Z,49.00
2018-02-05T10:00:37.165Z,48.80
2018-02-05T10:03:14.541Z,48.90
2018-02-05T10:05:42.886Z,48.80
2018-02-05T10:08:10.482Z,48.60
2018-02-05T10:10:38.100Z,48.90
2018-02-05T10:13:09.095Z,48.90
2018-02-05T10:15:37.437Z,48.90
2018-02-05T10:18:05.064Z,48.90
2018-02-05T10:20:32.639Z,48.80
2018-02-05T10:23:00.984Z,48.90
2018-02-05T10:25:28.547Z,48.80
2018-02-05T10:27:59.246Z,49.00
2018-02-05T10:30:26.822Z,48.80
2018-02-05T10:32:55.172Z,48.70
2018-02-05T10:35:22.739Z,49.20
2018-02-05T10:37:50.307Z,48.60
2018-02-05T10:40:25.467Z,48.50
2018-02-05T10:42:53.813Z,48.10
2018-02-05T10:45:21.405Z,48.00
2018-02-05T10:47:49.753Z,48.00
2018-02-05T10:50:17.326Z,47.90
2018-02-05T10:52:44.907Z,47.80
2018-02-05T10:55:13.262Z,47.70
2018-02-05T10:57:40.840Z,47.60
2018-02-05T11:00:09.186Z,46.80
2018-02-05T11:02:36.777Z,46.70
2018-02-05T11:05:05.125Z,46.90
2018-02-05T11:07:32.713Z,46.90
2018-02-05T11:10:00.299Z,47.00
2018-02-05T11:12:28.636Z,47.10
2018-02-05T11:14:56.210Z,47.10
2018-02-05T11:17:23.827Z,47.10
2018-02-05T11:19:51.396Z,47.10
2018-02-05T11:22:18.978Z,47.00
2018-02-05T11:24:47.413Z,47.00
2018-02-05T11:27:14.976Z,47.10
2018-02-05T11:29:42.548Z,47.10
2018-02-05T11:32:10.152Z,47.20
2018-02-05T11:34:37.732Z,47.30
2018-02-05T11:37:06.086Z,47.60
2018-02-05T11:39:33.667Z,47.50
2018-02-05T11:42:02.010Z,48.00
2018-02-05T11:44:29.582Z,48.30
2018-02-05T11:46:57.196Z,47.80
2018-02-05T11:49:24.762Z,47.90
2018-02-05T11:51:52.341Z,48.00
2018-02-05T11:54:19.948Z,48.00
2018-02-05T11:56:47.525Z,48.10
2018-02-05T11:59:15.888Z,48.20
2018-02-05T12:01:43.466Z,48.20
2018-02-05T12:04:11.823Z,47.90
2018-02-05T12:06:39.389Z,47.90
2018-02-05T12:09:06.962Z,47.40
2018-02-05T12:11:35.291Z,48.00
2018-02-05T12:14:02.872Z,48.00
2018-02-05T12:16:30.447Z,48.00
2018-02-05T12:18:58.059Z,48.10
2018-02-05T12:21:26.456Z,48.10
2018-02-05T12:23:54.062Z,48.20
2018-02-05T12:26:22.404Z,48.40
2018-02-05T12:28:49.985Z,48.30
2018-02-05T12:31:17.585Z,48.40
2018-02-05T12:33:45.193Z,48.30
2018-02-05T12:36:12.752Z,48.50
2018-02-05T12:38:40.345Z,48.30
2018-02-05T12:41:08.685Z,48.30
2018-02-05T12:43:36.267Z,48.30
2018-02-05T12:46:03.869Z,48.30
2018-02-05T12:48:48.503Z,48.40
2018-02-05T12:51:16.111Z,48.40
2018-02-05T12:53:44.005Z,48.40
2018-02-05T12:56:11.568Z,48.40
2018-02-05T12:58:42.098Z,48.50
2018-02-05T13:01:13.529Z,48.50
2018-02-05T13:03:56.855Z,48.50
2018-02-05T13:06:40.103Z,48.70
2018-02-05T13:09:07.694Z,48.50
2018-02-05T13:11:35.272Z,48.60
2018-02-05T13:14:04.335Z,48.60
2018-02-05T13:16:31.926Z,48.50
2018-02-05T13:19:03.728Z,48.60
2018-02-05T13:21:31.301Z,48.60
2018-02-05T13:23:58.955Z,48.50
2018-02-05T13:26:26.512Z,48.50
2018-02-05T13:28:54.089Z,48.50
2018-02-05T13:31:43.399Z,48.70
2018-02-05T13:34:10.996Z,48.80
2018-02-05T13:36:38.559Z,48.90
2018-02-05T13:39:06.178Z,48.90
2018-02-05T13:41:34.512Z,49.20
2018-02-05T13:44:02.075Z,49.10
2018-02-05T13:46:29.673Z,48.90
2018-02-05T13:48:57.256Z,48.90
2018-02-05T13:51:25.577Z,48.50
2018-02-05T13:53:53.175Z,48.30
2018-02-05T13:56:29.010Z,48.40
2018-02-05T13:58:56.620Z,48.30
2018-02-05T14:01:24.184Z,48.40
2018-02-05T14:03:51.745Z,48.50
2018-02-05T14:06:19.372Z,48.50
2018-02-05T14:09:07.732Z,48.50
2018-02-05T14:11:36.097Z,48.70
2018-02-05T14:14:03.687Z,48.70
2018-02-05T14:16:31.257Z,48.70
2018-02-05T14:19:03.786Z,48.70
2018-02-05T14:21:31.359Z,48.50
2018-02-05T14:23:58.927Z,48.50
2018-02-05T14:26:27.294Z,48.60
2018-02-05T14:28:54.853Z,48.50
2018-02-05T14:31:22.419Z,48.70
2018-02-05T14:33:50.014Z,48.60
2018-02-05T14:36:17.583Z,48.90
2018-02-05T14:38:45.152Z,48.80
2018-02-05T14:41:14.006Z,48.80
2018-02-05T14:43:42.355Z,48.80
2018-02-05T14:46:10.692Z,48.80
2018-02-05T14:48:41.917Z,48.70
2018-02-05T14:51:10.249Z,48.70
2018-02-05T14:53:37.813Z,48.70
2018-02-05T14:56:05.528Z,48.80
2018-02-05T14:58:33.123Z,48.70
2018-02-05T15:01:22.051Z,48.70
2018-02-05T15:03:50.173Z,48.80
2018-02-05T15:06:18.527Z,48.60
2018-02-05T15:08:46.123Z,48.70
2018-02-05T15:14:00.896Z,47.90
2018-02-05T15:16:28.464Z,48.10
2018-02-05T15:18:56.051Z,48.90
2018-02-05T15:21:45.766Z,49.70
2018-02-05T15:24:13.335Z,49.70
2018-02-05T15:26:40.914Z,49.90
2018-02-05T15:29:08.506Z,49.90
2018-02-05T15:31:36.839Z,49.90
2018-02-05T15:34:04.406Z,49.90
2018-02-05T15:36:31.976Z,49.90
2018-02-05T15:38:59.557Z,49.80
2018-02-05T15:41:27.127Z,49.80
2018-02-05T15:43:54.912Z,49.80
2018-02-05T15:46:23.258Z,50.00
2018-02-05T15:48:50.848Z,50.10
2018-02-05T15:51:19.212Z,50.10
2018-02-05T15:53:46.792Z,50.10
2018-02-05T15:56:25.626Z,50.00
2018-02-05T15:58:53.194Z,50.00
2018-02-05T16:01:20.774Z,50.10
2018-02-05T16:03:48.358Z,50.10
2018-02-05T16:06:15.955Z,50.10
2018-02-05T16:08:51.886Z,50.90
2018-02-05T16:11:19.457Z,50.80
2018-02-05T16:13:47.044Z,50.70
2018-02-05T16:16:41.217Z,50.60
2018-02-05T16:19:10.396Z,50.50
2018-02-05T16:21:38.317Z,50.40
2018-02-05T16:24:05.920Z,50.60
2018-02-05T16:26:33.507Z,50.40
2018-02-05T16:29:01.863Z,50.10
2018-02-05T16:31:29.451Z,50.10
2018-02-05T16:33:57.770Z,50.10
2018-02-05T16:36:25.330Z,50.10
2018-02-05T16:38:52.917Z,50.00
2018-02-05T16:41:27.651Z,49.80
2018-02-05T16:43:55.235Z,48.00
2018-02-05T16:46:23.569Z,47.70
2018-02-05T16:48:51.129Z,47.60
2018-02-05T16:51:18.702Z,48.00
2018-02-05T16:56:36.783Z,47.90
2018-02-05T16:59:05.603Z,48.40
2018-02-05T17:01:33.198Z,48.60
2018-02-05T17:04:00.813Z,48.70
2018-02-05T17:06:28.386Z,49.00
2018-02-05T17:08:55.971Z,49.40
2018-02-05T17:11:23.554Z,49.30
2018-02-05T17:13:51.126Z,49.70
2018-02-05T17:16:18.706Z,49.90
2018-02-05T17:18:47.059Z,51.10
2018-02-05T17:21:14.631Z,51.00
2018-02-05T17:23:42.219Z,51.00
2018-02-05T17:28:13.314Z,50.40
2018-02-05T17:30:40.892Z,45.90
2018-02-05T17:33:08.542Z,45.10
2018-02-05T17:35:36.121Z,44.80
2018-02-05T17:38:03.773Z,44.60
2018-02-05T17:40:31.347Z,44.80
2018-02-05T17:42:58.935Z,45.00
2018-02-05T17:45:27.358Z,46.30
2018-02-05T17:47:54.917Z,45.70
2018-02-05T17:50:22.684Z,46.00
2018-02-05T17:52:50.358Z,46.30
2018-02-05T17:55:17.940Z,46.40
2018-02-05T17:57:56.143Z,46.50
2018-02-05T18:00:23.709Z,46.70
2018-02-05T18:02:51.349Z,46.90
2018-02-05T18:05:19.012Z,46.90
2018-02-05T18:07:46.716Z,47.30
2018-02-05T18:10:14.304Z,47.30
2018-02-05T18:12:42.669Z,47.70
2018-02-05T18:15:33.413Z,47.70
2018-02-05T18:18:00.987Z,47.60
2018-02-05T18:20:28.652Z,47.80
2018-02-05T18:22:56.216Z,47.70
2018-02-05T18:25:23.883Z,47.80
2018-02-05T18:27:51.572Z,47.90
2018-02-05T18:30:19.137Z,47.90
2018-02-05T18:32:46.719Z,48.00
2018-02-05T18:35:15.153Z,48.10
2018-02-05T18:37:42.755Z,48.00
2018-02-05T18:40:18.807Z,48.10
2018-02-05T18:42:47.155Z,48.30
2018-02-05T18:45:14.804Z,48.10
2018-02-05T18:47:57.837Z,48.20
2018-02-05T18:50:25.400Z,48.20
2018-02-05T18:52:53.121Z,48.10
2018-02-05T18:55:21.148Z,48.10
2018-02-05T18:58:24.424Z,48.10
2018-02-05T19:00:52.912Z,48.10
2018-02-05T19:03:20.570Z,47.90
2018-02-05T19:05:48.250Z,47.90
2018-02-05T19:08:18.718Z,48.00
2018-02-05T19:10:47.138Z,47.90
2018-02-05T19:13:14.752Z,47.90
2018-02-05T19:15:43.190Z,48.10
2018-02-05T19:18:10.797Z,48.00
2018-02-05T19:20:39.146Z,48.00
2018-02-05T19:23:06.777Z,48.00
2018-02-05T19:25:34.338Z,48.10
2018-02-05T19:28:01.926Z,48.10
2018-02-05T19:30:29.569Z,48.10
2018-02-05T19:32:57.244Z,48.10
2018-02-05T19:35:49.476Z,48.10
2018-02-05T19:38:17.046Z,48.10
2018-02-05T19:40:44.610Z,48.20
2018-02-05T19:43:12.205Z,48.20
2018-02-05T19:45:40.646Z,48.10
2018-02-05T19:48:08.213Z,48.10
2018-02-05T19:50:35.878Z,48.20
2018-02-05T19:53:03.527Z,48.20
2018-02-05T19:55:31.254Z,48.10
2018-02-05T19:57:58.963Z,48.10
2018-02-05T20:00:26.529Z,48.10
2018-02-05T20:02:54.184Z,48.10
2018-02-05T20:05:21.890Z,48.20
2018-02-05T20:07:49.436Z,48.10
2018-02-05T20:10:17.022Z,48.10
2018-02-05T20:12:45.361Z,48.50
2018-02-05T20:15:12.941Z,48.40
2018-02-05T20:17:40.565Z,48.20
2018-02-05T20:20:08.136Z,48.70
2018-02-05T20:22:35.693Z,48.20
2018-02-05T20:25:03.264Z,48.30
2018-02-05T20:27:31.697Z,48.20
2018-02-05T20:29:59.287Z,48.10
2018-02-05T20:32:27.012Z,48.20
2018-02-05T20:34:55.440Z,48.10
2018-02-05T20:37:23.075Z,48.00
2018-02-05T20:39:50.635Z,48.00
2018-02-05T20:42:25.570Z,47.90
2018-02-05T20:44:53.138Z,48.10
2018-02-05T20:47:20.807Z,48.00
2018-02-05T20:49:48.481Z,48.10
2018-02-05T20:52:16.162Z,48.20
2018-02-05T20:54:43.755Z,48.20
2018-02-05T20:57:12.116Z,48.20
2018-02-05T20:59:39.705Z,48.20
2018-02-05T21:02:07.274Z,48.30
2018-02-05T21:04:34.866Z,48.30
2018-02-05T21:07:02.420Z,48.20
2018-02-05T21:09:30.089Z,48.30
2018-02-05T21:11:57.648Z,48.40
2018-02-05T21:14:25.209Z,48.50
2018-02-05T21:16:52.827Z,48.30
